Terminal Aerodrome Forecast
Issued by NWS Pocatello, ID

Home | Current Version | Previous Version | Text Only | Print | Product List | Glossary On
Versions: 1 2 3 4 5 6 7 8 9 10 11 12 13 14 15 16 17 18 19
261
FTUS45 KPIH 191504 AAE
TAFPIH
TAF AMD
KPIH 191504Z 1915/2012 18012G22KT 3SM -SN BR OVC020
      TEMPO 1915/1917 1SM -SN BR BKN008 OVC015
     FM191700 19011G21KT 6SM -SHSN BR BKN010 OVC020
     FM192100 24011KT 5SM -SHSN BR BKN010 OVC020
     FM200300 24006KT P6SM VCSH OVC012=

USA.gov is the U.S. government's official web portal to all federal, state and local government web resources and services.